sensor_id;sensor_type;location;lat;lon;timestamp;temperature;humidity
15156;DHT22;7678;50.058;8.306;2022-08-14T00:02:23;23.20;56.70
15156;DHT22;7678;50.058;8.306;2022-08-14T00:04:54;23.20;57.30
15156;DHT22;7678;50.058;8.306;2022-08-14T00:07:22;23.10;58.00
15156;DHT22;7678;50.058;8.306;2022-08-14T00:09:52;23.20;58.00
15156;DHT22;7678;50.058;8.306;2022-08-14T00:12:43;23.10;58.60
15156;DHT22;7678;50.058;8.306;2022-08-14T00:15:22;23.00;59.40
15156;DHT22;7678;50.058;8.306;2022-08-14T00:17:56;23.00;59.80
15156;DHT22;7678;50.058;8.306;2022-08-14T00:20:29;22.90;59.80
15156;DHT22;7678;50.058;8.306;2022-08-14T00:23:08;23.00;60.60
15156;DHT22;7678;50.058;8.306;2022-08-14T00:25:44;22.90;60.00
15156;DHT22;7678;50.058;8.306;2022-08-14T00:28:25;22.80;62.80
15156;DHT22;7678;50.058;8.306;2022-08-14T00:30:58;22.90;61.00
15156;DHT22;7678;50.058;8.306;2022-08-14T00:33:27;22.90;61.50
15156;DHT22;7678;50.058;8.306;2022-08-14T00:36:17;22.90;63.00
15156;DHT22;7678;50.058;8.306;2022-08-14T00:39:07;22.80;64.40
15156;DHT22;7678;50.058;8.306;2022-08-14T00:41:38;22.60;65.20
15156;DHT22;7678;50.058;8.306;2022-08-14T00:44:08;22.60;66.50
15156;DHT22;7678;50.058;8.306;2022-08-14T00:46:36;22.70;65.10
15156;DHT22;7678;50.058;8.306;2022-08-14T00:49:04;22.70;66.20
15156;DHT22;7678;50.058;8.306;2022-08-14T00:51:38;22.60;66.60
15156;DHT22;7678;50.058;8.306;2022-08-14T00:54:07;22.60;67.50
15156;DHT22;7678;50.058;8.306;2022-08-14T00:56:48;22.60;66.70
15156;DHT22;7678;50.058;8.306;2022-08-14T00:59:20;22.60;67.10
15156;DHT22;7678;50.058;8.306;2022-08-14T01:01:50;22.60;65.80
15156;DHT22;7678;50.058;8.306;2022-08-14T01:04:21;22.60;65.60
15156;DHT22;7678;50.058;8.306;2022-08-14T01:07:11;22.50;67.60
15156;DHT22;7678;50.058;8.306;2022-08-14T01:09:48;22.60;68.10
15156;DHT22;7678;50.058;8.306;2022-08-14T01:12:18;22.60;68.70
15156;DHT22;7678;50.058;8.306;2022-08-14T01:14:53;22.50;68.80
15156;DHT22;7678;50.058;8.306;2022-08-14T01:17:24;22.60;68.50
15156;DHT22;7678;50.058;8.306;2022-08-14T01:20:18;22.40;70.10
15156;DHT22;7678;50.058;8.306;2022-08-14T01:23:08;22.40;68.30
15156;DHT22;7678;50.058;8.306;2022-08-14T01:25:42;22.30;71.10
15156;DHT22;7678;50.058;8.306;2022-08-14T01:28:12;22.30;70.30
15156;DHT22;7678;50.058;8.306;2022-08-14T01:31:00;22.30;70.20
15156;DHT22;7678;50.058;8.306;2022-08-14T01:33:32;22.30;69.70
15156;DHT22;7678;50.058;8.306;2022-08-14T01:36:20;22.20;70.70
15156;DHT22;7678;50.058;8.306;2022-08-14T01:38:51;22.30;68.40
15156;DHT22;7678;50.058;8.306;2022-08-14T01:41:22;22.30;70.30
15156;DHT22;7678;50.058;8.306;2022-08-14T01:43:59;22.20;71.30
15156;DHT22;7678;50.058;8.306;2022-08-14T01:46:30;22.10;72.90
15156;DHT22;7678;50.058;8.306;2022-08-14T01:49:05;22.00;71.70
15156;DHT22;7678;50.058;8.306;2022-08-14T01:51:39;22.10;72.30
15156;DHT22;7678;50.058;8.306;2022-08-14T01:54:12;22.00;72.70
15156;DHT22;7678;50.058;8.306;2022-08-14T01:56:44;22.10;73.40
15156;DHT22;7678;50.058;8.306;2022-08-14T01:59:19;21.90;74.00
15156;DHT22;7678;50.058;8.306;2022-08-14T02:01:49;21.90;75.00
15156;DHT22;7678;50.058;8.306;2022-08-14T02:04:26;22.00;75.80
15156;DHT22;7678;50.058;8.306;2022-08-14T02:07:15;21.90;75.90
15156;DHT22;7678;50.058;8.306;2022-08-14T02:10:06;21.90;74.70
15156;DHT22;7678;50.058;8.306;2022-08-14T02:12:41;21.90;75.10
15156;DHT22;7678;50.058;8.306;2022-08-14T02:15:19;21.90;75.30
15156;DHT22;7678;50.058;8.306;2022-08-14T02:17:48;21.70;78.40
15156;DHT22;7678;50.058;8.306;2022-08-14T02:20:16;21.80;78.60
15156;DHT22;7678;50.058;8.306;2022-08-14T02:22:49;21.90;76.80
15156;DHT22;7678;50.058;8.306;2022-08-14T02:25:22;21.90;76.10
15156;DHT22;7678;50.058;8.306;2022-08-14T02:27:55;21.80;75.90
15156;DHT22;7678;50.058;8.306;2022-08-14T02:30:44;21.90;76.80
15156;DHT22;7678;50.058;8.306;2022-08-14T02:33:12;21.90;77.20
15156;DHT22;7678;50.058;8.306;2022-08-14T02:35:41;21.80;78.90
15156;DHT22;7678;50.058;8.306;2022-08-14T02:38:18;21.70;78.70
15156;DHT22;7678;50.058;8.306;2022-08-14T02:40:57;21.70;79.70
15156;DHT22;7678;50.058;8.306;2022-08-14T02:43:26;21.70;79.80
15156;DHT22;7678;50.058;8.306;2022-08-14T02:46:12;21.70;80.60
15156;DHT22;7678;50.058;8.306;2022-08-14T02:48:53;21.60;82.00
15156;DHT22;7678;50.058;8.306;2022-08-14T02:51:32;21.60;81.30
15156;DHT22;7678;50.058;8.306;2022-08-14T02:54:05;21.50;82.40
15156;DHT22;7678;50.058;8.306;2022-08-14T02:56:36;21.50;81.10
15156;DHT22;7678;50.058;8.306;2022-08-14T02:59:25;21.50;83.00
15156;DHT22;7678;50.058;8.306;2022-08-14T03:02:00;21.30;85.20
15156;DHT22;7678;50.058;8.306;2022-08-14T03:04:30;21.50;83.50
15156;DHT22;7678;50.058;8.306;2022-08-14T03:06:58;21.50;81.50
15156;DHT22;7678;50.058;8.306;2022-08-14T03:09:34;21.40;84.40
15156;DHT22;7678;50.058;8.306;2022-08-14T03:12:24;21.30;84.20
15156;DHT22;7678;50.058;8.306;2022-08-14T03:14:58;21.40;83.90
15156;DHT22;7678;50.058;8.306;2022-08-14T03:17:31;21.30;85.20
15156;DHT22;7678;50.058;8.306;2022-08-14T03:20:21;21.20;84.70
15156;DHT22;7678;50.058;8.306;2022-08-14T03:22:49;21.20;86.80
15156;DHT22;7678;50.058;8.306;2022-08-14T03:25:18;21.10;87.10
15156;DHT22;7678;50.058;8.306;2022-08-14T03:27:49;21.10;85.50
15156;DHT22;7678;50.058;8.306;2022-08-14T03:30:25;21.10;85.40
15156;DHT22;7678;50.058;8.306;2022-08-14T03:33:07;20.90;88.20
15156;DHT22;7678;50.058;8.306;2022-08-14T03:35:37;20.70;90.10
15156;DHT22;7678;50.058;8.306;2022-08-14T03:38:27;20.60;90.40
15156;DHT22;7678;50.058;8.306;2022-08-14T03:41:18;20.70;90.20
15156;DHT22;7678;50.058;8.306;2022-08-14T03:43:53;20.70;88.40
15156;DHT22;7678;50.058;8.306;2022-08-14T03:46:28;20.60;90.50
15156;DHT22;7678;50.058;8.306;2022-08-14T03:49:16;20.60;89.90
15156;DHT22;7678;50.058;8.306;2022-08-14T03:51:56;20.60;90.60
15156;DHT22;7678;50.058;8.306;2022-08-14T03:54:28;20.60;91.30
15156;DHT22;7678;50.058;8.306;2022-08-14T03:57:01;20.40;91.40
15156;DHT22;7678;50.058;8.306;2022-08-14T03:59:33;20.60;91.70
15156;DHT22;7678;50.058;8.306;2022-08-14T04:02:05;20.60;91.40
15156;DHT22;7678;50.058;8.306;2022-08-14T04:04:53;20.70;91.50
15156;DHT22;7678;50.058;8.306;2022-08-14T04:07:34;20.60;91.90
15156;DHT22;7678;50.058;8.306;2022-08-14T04:10:08;20.50;91.70
15156;DHT22;7678;50.058;8.306;2022-08-14T04:12:36;20.50;92.00
15156;DHT22;7678;50.058;8.306;2022-08-14T04:15:06;20.60;91.50
15156;DHT22;7678;50.058;8.306;2022-08-14T04:17:38;20.60;91.20
15156;DHT22;7678;50.058;8.306;2022-08-14T04:20:12;20.40;92.30
15156;DHT22;7678;50.058;8.306;2022-08-14T04:22:51;20.40;92.20
15156;DHT22;7678;50.058;8.306;2022-08-14T04:25:21;20.40;92.90
15156;DHT22;7678;50.058;8.306;2022-08-14T04:27:50;20.20;93.20
15156;DHT22;7678;50.058;8.306;2022-08-14T04:30:31;20.10;93.70
15156;DHT22;7678;50.058;8.306;2022-08-14T04:33:08;20.10;94.20
15156;DHT22;7678;50.058;8.306;2022-08-14T04:35:46;20.20;93.70
15156;DHT22;7678;50.058;8.306;2022-08-14T04:38:23;20.30;92.90
15156;DHT22;7678;50.058;8.306;2022-08-14T04:41:25;20.30;93.90
15156;DHT22;7678;50.058;8.306;2022-08-14T04:44:11;20.30;94.10
15156;DHT22;7678;50.058;8.306;2022-08-14T04:47:01;20.30;92.80
15156;DHT22;7678;50.058;8.306;2022-08-14T04:49:47;20.20;94.70
15156;DHT22;7678;50.058;8.306;2022-08-14T04:52:23;20.20;94.10
15156;DHT22;7678;50.058;8.306;2022-08-14T04:54:51;20.20;95.40
15156;DHT22;7678;50.058;8.306;2022-08-14T04:57:21;20.30;95.10
15156;DHT22;7678;50.058;8.306;2022-08-14T04:59:49;20.30;93.90
15156;DHT22;7678;50.058;8.306;2022-08-14T05:02:19;20.40;94.00
15156;DHT22;7678;50.058;8.306;2022-08-14T05:04:55;20.30;95.10
15156;DHT22;7678;50.058;8.306;2022-08-14T05:07:24;20.40;94.60
15156;DHT22;7678;50.058;8.306;2022-08-14T05:10:12;20.40;94.80
15156;DHT22;7678;50.058;8.306;2022-08-14T05:12:47;20.40;95.40
15156;DHT22;7678;50.058;8.306;2022-08-14T05:15:36;20.40;95.50
15156;DHT22;7678;50.058;8.306;2022-08-14T05:18:10;20.40;95.70
15156;DHT22;7678;50.058;8.306;2022-08-14T05:21:01;20.50;95.50
15156;DHT22;7678;50.058;8.306;2022-08-14T05:23:49;20.70;93.10
15156;DHT22;7678;50.058;8.306;2022-08-14T05:26:19;20.80;93.70
15156;DHT22;7678;50.058;8.306;2022-08-14T05:28:47;20.70;94.40
15156;DHT22;7678;50.058;8.306;2022-08-14T05:31:17;20.70;94.70
15156;DHT22;7678;50.058;8.306;2022-08-14T05:33:48;20.70;95.00
15156;DHT22;7678;50.058;8.306;2022-08-14T05:36:23;20.90;94.30
15156;DHT22;7678;50.058;8.306;2022-08-14T05:38:53;20.90;93.90
15156;DHT22;7678;50.058;8.306;2022-08-14T05:41:21;21.10;92.90
15156;DHT22;7678;50.058;8.306;2022-08-14T05:44:09;21.20;93.50
15156;DHT22;7678;50.058;8.306;2022-08-14T05:46:37;21.30;93.30
15156;DHT22;7678;50.058;8.306;2022-08-14T05:49:09;21.30;93.50
15156;DHT22;7678;50.058;8.306;2022-08-14T05:51:37;21.40;93.60
15156;DHT22;7678;50.058;8.306;2022-08-14T05:54:07;21.50;92.50
15156;DHT22;7678;50.058;8.306;2022-08-14T05:56:42;21.60;91.70
15156;DHT22;7678;50.058;8.306;2022-08-14T05:59:10;21.70;91.10
15156;DHT22;7678;50.058;8.306;2022-08-14T06:01:42;21.70;90.40
15156;DHT22;7678;50.058;8.306;2022-08-14T06:04:13;21.80;89.70
15156;DHT22;7678;50.058;8.306;2022-08-14T06:06:41;21.80;90.50
15156;DHT22;7678;50.058;8.306;2022-08-14T06:09:09;21.90;90.40
15156;DHT22;7678;50.058;8.306;2022-08-14T06:11:38;22.00;90.70
15156;DHT22;7678;50.058;8.306;2022-08-14T06:14:08;22.00;87.50
15156;DHT22;7678;50.058;8.306;2022-08-14T06:16:49;22.00;87.30
15156;DHT22;7678;50.058;8.306;2022-08-14T06:19:20;22.20;88.50
15156;DHT22;7678;50.058;8.306;2022-08-14T06:21:49;22.20;86.30
15156;DHT22;7678;50.058;8.306;2022-08-14T06:24:26;22.30;87.50
15156;DHT22;7678;50.058;8.306;2022-08-14T06:27:00;22.30;87.00
15156;DHT22;7678;50.058;8.306;2022-08-14T06:29:32;22.30;86.80
15156;DHT22;7678;50.058;8.306;2022-08-14T06:32:02;22.30;87.50
15156;DHT22;7678;50.058;8.306;2022-08-14T06:34:51;22.40;84.80
15156;DHT22;7678;50.058;8.306;2022-08-14T06:37:40;22.50;88.70
15156;DHT22;7678;50.058;8.306;2022-08-14T06:40:11;22.50;86.00
15156;DHT22;7678;50.058;8.306;2022-08-14T06:42:54;22.60;84.00
15156;DHT22;7678;50.058;8.306;2022-08-14T06:45:22;22.60;85.10
15156;DHT22;7678;50.058;8.306;2022-08-14T06:47:53;22.60;82.80
15156;DHT22;7678;50.058;8.306;2022-08-14T06:50:26;22.80;85.00
15156;DHT22;7678;50.058;8.306;2022-08-14T06:52:56;22.90;81.80
15156;DHT22;7678;50.058;8.306;2022-08-14T06:55:24;22.90;83.20
15156;DHT22;7678;50.058;8.306;2022-08-14T06:57:55;22.90;81.40
15156;DHT22;7678;50.058;8.306;2022-08-14T07:00:25;22.80;81.70
15156;DHT22;7678;50.058;8.306;2022-08-14T07:02:57;22.90;79.90
15156;DHT22;7678;50.058;8.306;2022-08-14T07:05:44;22.90;80.30
15156;DHT22;7678;50.058;8.306;2022-08-14T07:08:23;23.00;80.30
15156;DHT22;7678;50.058;8.306;2022-08-14T07:10:58;22.90;79.60
15156;DHT22;7678;50.058;8.306;2022-08-14T07:13:27;22.90;78.70
15156;DHT22;7678;50.058;8.306;2022-08-14T07:15:57;22.90;80.90
15156;DHT22;7678;50.058;8.306;2022-08-14T07:18:32;23.00;80.90
15156;DHT22;7678;50.058;8.306;2022-08-14T07:21:03;23.00;80.60
15156;DHT22;7678;50.058;8.306;2022-08-14T07:23:33;23.00;78.70
15156;DHT22;7678;50.058;8.306;2022-08-14T07:26:10;23.10;78.50
15156;DHT22;7678;50.058;8.306;2022-08-14T07:28:40;23.10;78.50
15156;DHT22;7678;50.058;8.306;2022-08-14T07:31:10;23.20;78.50
15156;DHT22;7678;50.058;8.306;2022-08-14T07:33:40;23.10;78.50
15156;DHT22;7678;50.058;8.306;2022-08-14T07:36:15;23.20;79.60
15156;DHT22;7678;50.058;8.306;2022-08-14T07:38:55;23.30;78.00
15156;DHT22;7678;50.058;8.306;2022-08-14T07:41:23;23.40;76.30
15156;DHT22;7678;50.058;8.306;2022-08-14T07:44:00;23.40;76.40
15156;DHT22;7678;50.058;8.306;2022-08-14T07:46:48;23.40;76.50
15156;DHT22;7678;50.058;8.306;2022-08-14T07:49:16;23.60;75.80
15156;DHT22;7678;50.058;8.306;2022-08-14T07:51:47;23.70;73.60
15156;DHT22;7678;50.058;8.306;2022-08-14T07:54:16;23.60;75.60
15156;DHT22;7678;50.058;8.306;2022-08-14T07:56:49;23.70;73.20
15156;DHT22;7678;50.058;8.306;2022-08-14T07:59:22;23.80;72.80
15156;DHT22;7678;50.058;8.306;2022-08-14T08:02:09;23.80;72.10
15156;DHT22;7678;50.058;8.306;2022-08-14T08:04:47;23.70;71.20
15156;DHT22;7678;50.058;8.306;2022-08-14T08:07:22;24.00;70.30
15156;DHT22;7678;50.058;8.306;2022-08-14T08:09:57;24.10;69.00
15156;DHT22;7678;50.058;8.306;2022-08-14T08:12:28;24.10;69.80
15156;DHT22;7678;50.058;8.306;2022-08-14T08:15:06;24.20;69.20
15156;DHT22;7678;50.058;8.306;2022-08-14T08:17:35;24.20;67.20
15156;DHT22;7678;50.058;8.306;2022-08-14T08:20:14;24.20;68.00
15156;DHT22;7678;50.058;8.306;2022-08-14T08:22:48;24.40;67.20
15156;DHT22;7678;50.058;8.306;2022-08-14T08:25:22;24.30;66.40
15156;DHT22;7678;50.058;8.306;2022-08-14T08:27:54;24.30;65.40
15156;DHT22;7678;50.058;8.306;2022-08-14T08:30:23;24.40;66.90
15156;DHT22;7678;50.058;8.306;2022-08-14T08:32:54;24.30;66.30
15156;DHT22;7678;50.058;8.306;2022-08-14T08:35:24;24.40;65.50
15156;DHT22;7678;50.058;8.306;2022-08-14T08:38:16;24.60;66.70
15156;DHT22;7678;50.058;8.306;2022-08-14T08:41:04;24.70;63.20
15156;DHT22;7678;50.058;8.306;2022-08-14T08:43:37;24.80;63.00
15156;DHT22;7678;50.058;8.306;2022-08-14T08:46:14;24.70;61.20
15156;DHT22;7678;50.058;8.306;2022-08-14T08:48:51;25.00;61.30
15156;DHT22;7678;50.058;8.306;2022-08-14T08:51:23;24.90;61.80
15156;DHT22;7678;50.058;8.306;2022-08-14T08:54:03;25.10;60.10
15156;DHT22;7678;50.058;8.306;2022-08-14T08:56:39;25.00;59.50
15156;DHT22;7678;50.058;8.306;2022-08-14T08:59:19;25.00;59.90
15156;DHT22;7678;50.058;8.306;2022-08-14T09:01:54;25.10;58.30
15156;DHT22;7678;50.058;8.306;2022-08-14T09:04:26;25.10;58.80
15156;DHT22;7678;50.058;8.306;2022-08-14T09:06:55;25.50;59.50
15156;DHT22;7678;50.058;8.306;2022-08-14T09:09:38;25.30;57.50
15156;DHT22;7678;50.058;8.306;2022-08-14T09:12:24;25.30;59.30
15156;DHT22;7678;50.058;8.306;2022-08-14T09:14:58;25.20;58.60
15156;DHT22;7678;50.058;8.306;2022-08-14T09:17:27;25.30;59.90
15156;DHT22;7678;50.058;8.306;2022-08-14T09:19:56;25.30;59.20
15156;DHT22;7678;50.058;8.306;2022-08-14T09:22:30;25.30;57.90
15156;DHT22;7678;50.058;8.306;2022-08-14T09:25:04;25.60;57.40
15156;DHT22;7678;50.058;8.306;2022-08-14T09:27:34;25.60;56.40
15156;DHT22;7678;50.058;8.306;2022-08-14T09:30:02;25.80;57.70
15156;DHT22;7678;50.058;8.306;2022-08-14T09:36:33;26.00;54.80
15156;DHT22;7678;50.058;8.306;2022-08-14T09:39:12;26.00;54.70
15156;DHT22;7678;50.058;8.306;2022-08-14T09:42:02;26.00;55.40
15156;DHT22;7678;50.058;8.306;2022-08-14T09:45:05;25.90;56.40
15156;DHT22;7678;50.058;8.306;2022-08-14T09:47:42;26.20;55.30
15156;DHT22;7678;50.058;8.306;2022-08-14T09:50:23;26.20;55.40
15156;DHT22;7678;50.058;8.306;2022-08-14T09:52:55;26.30;53.90
15156;DHT22;7678;50.058;8.306;2022-08-14T09:55:25;26.30;53.30
15156;DHT22;7678;50.058;8.306;2022-08-14T09:58:11;26.50;52.90
15156;DHT22;7678;50.058;8.306;2022-08-14T10:00:47;26.60;52.40
15156;DHT22;7678;50.058;8.306;2022-08-14T10:03:26;26.60;52.90
15156;DHT22;7678;50.058;8.306;2022-08-14T10:06:07;27.10;50.50
15156;DHT22;7678;50.058;8.306;2022-08-14T10:08:44;27.20;50.50
15156;DHT22;7678;50.058;8.306;2022-08-14T10:11:21;26.80;49.00
15156;DHT22;7678;50.058;8.306;2022-08-14T10:13:53;26.80;50.60
15156;DHT22;7678;50.058;8.306;2022-08-14T10:16:23;26.80;50.00
15156;DHT22;7678;50.058;8.306;2022-08-14T10:19:04;26.90;49.80
15156;DHT22;7678;50.058;8.306;2022-08-14T10:21:36;27.20;48.90
15156;DHT22;7678;50.058;8.306;2022-08-14T10:24:25;27.30;47.70
15156;DHT22;7678;50.058;8.306;2022-08-14T10:27:03;27.30;48.10
15156;DHT22;7678;50.058;8.306;2022-08-14T10:29:34;27.60;46.20
15156;DHT22;7678;50.058;8.306;2022-08-14T10:32:05;27.60;47.30
15156;DHT22;7678;50.058;8.306;2022-08-14T10:34:45;27.40;47.50
15156;DHT22;7678;50.058;8.306;2022-08-14T10:37:18;27.70;47.10
15156;DHT22;7678;50.058;8.306;2022-08-14T10:39:57;27.70;45.30
15156;DHT22;7678;50.058;8.306;2022-08-14T10:42:38;27.50;47.20
15156;DHT22;7678;50.058;8.306;2022-08-14T10:45:18;27.70;46.00
15156;DHT22;7678;50.058;8.306;2022-08-14T10:47:48;28.20;44.60
15156;DHT22;7678;50.058;8.306;2022-08-14T10:50:39;28.30;44.20
15156;DHT22;7678;50.058;8.306;2022-08-14T10:53:12;28.60;44.40
15156;DHT22;7678;50.058;8.306;2022-08-14T10:55:41;28.70;44.10
15156;DHT22;7678;50.058;8.306;2022-08-14T10:58:11;28.60;42.40
15156;DHT22;7678;50.058;8.306;2022-08-14T11:00:55;28.50;42.30
15156;DHT22;7678;50.058;8.306;2022-08-14T11:03:23;28.40;42.40
15156;DHT22;7678;50.058;8.306;2022-08-14T11:06:14;28.60;42.40
15156;DHT22;7678;50.058;8.306;2022-08-14T11:08:47;29.00;42.10
15156;DHT22;7678;50.058;8.306;2022-08-14T11:11:18;29.30;39.80
15156;DHT22;7678;50.058;8.306;2022-08-14T11:13:47;29.30;38.50
15156;DHT22;7678;50.058;8.306;2022-08-14T11:16:18;29.50;38.60
15156;DHT22;7678;50.058;8.306;2022-08-14T11:18:47;29.60;38.90
15156;DHT22;7678;50.058;8.306;2022-08-14T11:21:18;29.50;38.60
15156;DHT22;7678;50.058;8.306;2022-08-14T11:23:49;29.70;38.70
15156;DHT22;7678;50.058;8.306;2022-08-14T11:26:23;29.50;37.70
15156;DHT22;7678;50.058;8.306;2022-08-14T11:28:57;29.70;37.60
15156;DHT22;7678;50.058;8.306;2022-08-14T11:31:31;29.80;37.70
15156;DHT22;7678;50.058;8.306;2022-08-14T11:34:04;29.90;38.00
15156;DHT22;7678;50.058;8.306;2022-08-14T11:36:53;30.20;38.10
15156;DHT22;7678;50.058;8.306;2022-08-14T11:39:41;30.10;38.30
15156;DHT22;7678;50.058;8.306;2022-08-14T11:42:19;30.00;38.40
15156;DHT22;7678;50.058;8.306;2022-08-14T11:45:08;29.90;37.30
15156;DHT22;7678;50.058;8.306;2022-08-14T11:47:50;29.70;39.30
15156;DHT22;7678;50.058;8.306;2022-08-14T11:50:38;29.60;38.00
15156;DHT22;7678;50.058;8.306;2022-08-14T11:53:19;29.80;37.10
15156;DHT22;7678;50.058;8.306;2022-08-14T11:55:54;30.20;37.40
15156;DHT22;7678;50.058;8.306;2022-08-14T11:58:25;30.90;36.50
15156;DHT22;7678;50.058;8.306;2022-08-14T12:00:57;30.90;35.90
15156;DHT22;7678;50.058;8.306;2022-08-14T12:03:36;30.50;35.40
15156;DHT22;7678;50.058;8.306;2022-08-14T12:06:19;30.30;35.30
15156;DHT22;7678;50.058;8.306;2022-08-14T12:09:05;30.30;34.90
15156;DHT22;7678;50.058;8.306;2022-08-14T12:11:42;30.50;35.10
15156;DHT22;7678;50.058;8.306;2022-08-14T12:14:13;30.20;35.80
15156;DHT22;7678;50.058;8.306;2022-08-14T12:17:04;30.80;35.30
15156;DHT22;7678;50.058;8.306;2022-08-14T12:19:48;30.80;35.60
15156;DHT22;7678;50.058;8.306;2022-08-14T12:22:33;31.00;34.90
15156;DHT22;7678;50.058;8.306;2022-08-14T12:25:05;31.50;32.70
15156;DHT22;7678;50.058;8.306;2022-08-14T12:27:44;31.60;33.90
15156;DHT22;7678;50.058;8.306;2022-08-14T12:30:29;31.60;33.40
15156;DHT22;7678;50.058;8.306;2022-08-14T12:33:18;31.90;33.60
15156;DHT22;7678;50.058;8.306;2022-08-14T12:35:53;32.10;32.70
15156;DHT22;7678;50.058;8.306;2022-08-14T12:38:34;32.20;31.90
15156;DHT22;7678;50.058;8.306;2022-08-14T12:41:14;32.10;31.10
15156;DHT22;7678;50.058;8.306;2022-08-14T12:43:48;32.10;31.90
15156;DHT22;7678;50.058;8.306;2022-08-14T12:46:22;32.20;31.20
15156;DHT22;7678;50.058;8.306;2022-08-14T12:48:57;32.20;30.60
15156;DHT22;7678;50.058;8.306;2022-08-14T12:51:29;32.30;30.60
15156;DHT22;7678;50.058;8.306;2022-08-14T12:54:00;32.40;31.40
15156;DHT22;7678;50.058;8.306;2022-08-14T12:57:05;32.50;29.90
15156;DHT22;7678;50.058;8.306;2022-08-14T12:59:34;32.60;29.60
15156;DHT22;7678;50.058;8.306;2022-08-14T13:02:20;32.50;31.50
15156;DHT22;7678;50.058;8.306;2022-08-14T13:04:53;32.50;30.20
15156;DHT22;7678;50.058;8.306;2022-08-14T13:07:25;32.50;30.00
15156;DHT22;7678;50.058;8.306;2022-08-14T13:09:59;32.90;30.80
15156;DHT22;7678;50.058;8.306;2022-08-14T13:12:49;33.10;30.00
15156;DHT22;7678;50.058;8.306;2022-08-14T13:15:39;32.90;29.70
15156;DHT22;7678;50.058;8.306;2022-08-14T13:18:12;33.10;29.40
15156;DHT22;7678;50.058;8.306;2022-08-14T13:20:42;33.10;29.40
15156;DHT22;7678;50.058;8.306;2022-08-14T13:23:25;33.10;28.70
15156;DHT22;7678;50.058;8.306;2022-08-14T13:25:59;33.00;29.30
15156;DHT22;7678;50.058;8.306;2022-08-14T13:28:29;32.60;29.50
15156;DHT22;7678;50.058;8.306;2022-08-14T13:31:22;32.20;29.20
15156;DHT22;7678;50.058;8.306;2022-08-14T13:33:56;32.70;29.80
15156;DHT22;7678;50.058;8.306;2022-08-14T13:36:26;33.10;29.60
15156;DHT22;7678;50.058;8.306;2022-08-14T13:39:21;33.30;28.90
15156;DHT22;7678;50.058;8.306;2022-08-14T13:41:49;33.10;28.50
15156;DHT22;7678;50.058;8.306;2022-08-14T13:44:25;32.90;28.50
15156;DHT22;7678;50.058;8.306;2022-08-14T13:46:57;33.30;28.60
15156;DHT22;7678;50.058;8.306;2022-08-14T13:49:29;33.40;28.60
15156;DHT22;7678;50.058;8.306;2022-08-14T13:52:00;33.30;27.80
15156;DHT22;7678;50.058;8.306;2022-08-14T13:54:53;33.60;28.50
15156;DHT22;7678;50.058;8.306;2022-08-14T13:57:24;33.50;28.90
15156;DHT22;7678;50.058;8.306;2022-08-14T13:59:59;34.00;28.70
15156;DHT22;7678;50.058;8.306;2022-08-14T14:02:29;33.50;28.10
15156;DHT22;7678;50.058;8.306;2022-08-14T14:05:00;33.30;28.70
15156;DHT22;7678;50.058;8.306;2022-08-14T14:07:32;33.60;29.20
15156;DHT22;7678;50.058;8.306;2022-08-14T14:10:08;33.80;29.00
15156;DHT22;7678;50.058;8.306;2022-08-14T14:12:36;33.90;28.70
15156;DHT22;7678;50.058;8.306;2022-08-14T14:15:09;33.30;28.60
15156;DHT22;7678;50.058;8.306;2022-08-14T14:17:38;33.50;28.50
15156;DHT22;7678;50.058;8.306;2022-08-14T14:20:14;33.30;28.90
15156;DHT22;7678;50.058;8.306;2022-08-14T14:23:02;33.10;28.40
15156;DHT22;7678;50.058;8.306;2022-08-14T14:25:59;33.40;28.60
15156;DHT22;7678;50.058;8.306;2022-08-14T14:28:31;33.50;28.90
15156;DHT22;7678;50.058;8.306;2022-08-14T14:31:01;33.80;29.30
15156;DHT22;7678;50.058;8.306;2022-08-14T14:33:34;34.20;28.70
15156;DHT22;7678;50.058;8.306;2022-08-14T14:36:24;34.10;27.90
15156;DHT22;7678;50.058;8.306;2022-08-14T14:38:55;33.50;28.70
15156;DHT22;7678;50.058;8.306;2022-08-14T14:41:26;33.10;29.10
15156;DHT22;7678;50.058;8.306;2022-08-14T14:44:05;33.00;28.20
15156;DHT22;7678;50.058;8.306;2022-08-14T14:46:41;33.10;28.30
15156;DHT22;7678;50.058;8.306;2022-08-14T14:49:11;33.80;28.90
15156;DHT22;7678;50.058;8.306;2022-08-14T14:51:42;34.00;28.40
15156;DHT22;7678;50.058;8.306;2022-08-14T14:54:19;34.10;27.40
15156;DHT22;7678;50.058;8.306;2022-08-14T14:56:59;34.30;28.20
15156;DHT22;7678;50.058;8.306;2022-08-14T14:59:28;34.20;27.40
15156;DHT22;7678;50.058;8.306;2022-08-14T15:02:04;34.20;27.70
15156;DHT22;7678;50.058;8.306;2022-08-14T15:04:36;34.60;27.60
15156;DHT22;7678;50.058;8.306;2022-08-14T15:07:09;34.70;27.50
15156;DHT22;7678;50.058;8.306;2022-08-14T15:09:38;34.50;27.50
15156;DHT22;7678;50.058;8.306;2022-08-14T15:12:08;34.20;27.20
15156;DHT22;7678;50.058;8.306;2022-08-14T15:14:56;34.30;27.20
15156;DHT22;7678;50.058;8.306;2022-08-14T15:17:37;34.40;28.00
15156;DHT22;7678;50.058;8.306;2022-08-14T15:20:09;34.40;27.60
15156;DHT22;7678;50.058;8.306;2022-08-14T15:22:55;33.70;27.20
15156;DHT22;7678;50.058;8.306;2022-08-14T15:25:24;33.20;28.00
15156;DHT22;7678;50.058;8.306;2022-08-14T15:27:56;33.50;28.10
15156;DHT22;7678;50.058;8.306;2022-08-14T15:30:26;33.50;28.50
15156;DHT22;7678;50.058;8.306;2022-08-14T15:32:58;33.30;28.00
15156;DHT22;7678;50.058;8.306;2022-08-14T15:35:27;33.60;28.90
15156;DHT22;7678;50.058;8.306;2022-08-14T15:38:00;33.40;27.90
15156;DHT22;7678;50.058;8.306;2022-08-14T15:40:34;33.30;27.70
15156;DHT22;7678;50.058;8.306;2022-08-14T15:43:09;33.10;28.80
15156;DHT22;7678;50.058;8.306;2022-08-14T15:45:39;33.00;29.20
15156;DHT22;7678;50.058;8.306;2022-08-14T15:48:07;33.00;28.90
15156;DHT22;7678;50.058;8.306;2022-08-14T15:50:49;33.30;28.90
15156;DHT22;7678;50.058;8.306;2022-08-14T15:53:17;33.30;29.30
15156;DHT22;7678;50.058;8.306;2022-08-14T15:55:46;33.40;28.70
15156;DHT22;7678;50.058;8.306;2022-08-14T15:58:22;33.40;28.30
15156;DHT22;7678;50.058;8.306;2022-08-14T16:00:52;33.50;28.60
15156;DHT22;7678;50.058;8.306;2022-08-14T16:03:38;33.60;28.40
15156;DHT22;7678;50.058;8.306;2022-08-14T16:06:14;33.50;28.80
15156;DHT22;7678;50.058;8.306;2022-08-14T16:08:44;33.50;28.60
15156;DHT22;7678;50.058;8.306;2022-08-14T16:11:25;33.60;28.00
15156;DHT22;7678;50.058;8.306;2022-08-14T16:14:00;33.50;28.50
15156;DHT22;7678;50.058;8.306;2022-08-14T16:16:32;33.30;28.10
15156;DHT22;7678;50.058;8.306;2022-08-14T16:19:21;33.40;28.30
15156;DHT22;7678;50.058;8.306;2022-08-14T16:21:55;33.30;28.30
15156;DHT22;7678;50.058;8.306;2022-08-14T16:24:46;33.00;28.80
15156;DHT22;7678;50.058;8.306;2022-08-14T16:27:27;32.80;28.90
15156;DHT22;7678;50.058;8.306;2022-08-14T16:30:10;32.60;29.30
15156;DHT22;7678;50.058;8.306;2022-08-14T16:32:54;32.50;29.10
15156;DHT22;7678;50.058;8.306;2022-08-14T16:35:30;32.30;29.30
15156;DHT22;7678;50.058;8.306;2022-08-14T16:38:20;32.00;29.80
15156;DHT22;7678;50.058;8.306;2022-08-14T16:41:09;31.90;30.20
15156;DHT22;7678;50.058;8.306;2022-08-14T16:43:55;31.60;30.00
15156;DHT22;7678;50.058;8.306;2022-08-14T16:46:28;31.50;30.50